メインページ
METAR-TAF:

METAR-TAF

空港 :

オスロ空港

オスロ, ノルウェー

緯度: 60-12N, 経度: 011-05E, 海抜: 208m

現時点の気象観測

当レポートは26分前の05:50(UTC)に作成
南/南西の風 3kt
気温 -2°C
湿度 100%
気圧 1004 hPa
視程: 8000m
高度200ftの雲は散在している
高度1100ftの千切れ雲あり

METAR: ENGM 200550Z 20003KT 8000 SCT002 BKN011 M02/M02 Q1004 TEMPO BKN008

時間: 07:16 (06:16 UTC)

予報

予報は20日の 06時(UTC)から 21日の 06時(UTC)まで有効
変向風 5kt
視程10km以上
高度800ftの雲は散在している
高度2000ftの千切れ雲あり
20日の 06時(UTC)から 20日の 08時(UTC)まで徐々に
の風 12kt
視程: 4000m
高度200ftの雲は散在している
高度800ftの曇り
小雪, 雨
20日の 08時(UTC)から 20日の 16時(UTC)まで一時的に
視程: 1400m
高度200ftの曇り
雨, 雪, 靄
20日の 16時(UTC)から 20日の 18時(UTC)まで徐々に
視程: 8000m
高度400ftの雲は散在している
高度1000ftの曇り
20日の 16時(UTC)から 20日の 24時(UTC)まで一時的に
の風 18kt、最大30ktの突風を伴う
視程: 2000m
高度400ftの曇り
小雨, 靄
21日の 00時(UTC)から 21日の 03時(UTC)まで徐々に
西/南西の風 8kt
視程10km以上
1,500メートル以下は雲なし、積乱雲なし

TAF: ENGM 2006/2106 VRB05KT 9999 SCT008 BKN020 BECMG 2006/2008 17012KT 4000 -SNRA SCT002 OVC008 TEMPO 2008/2016 1400 RASN BR OVC002 BECMG 2016/2018 8000 RA SCT004 OVC010 TEMPO 2016/2024 19018G30KT 2000 -RA BR OVC004 BECMG 2100/2103 25008KT CAVOK

4,000以上の空港の気象観測と天気予報(METAR報とTAF報)

利用可能な観測所は地図上に黄色い丸と赤い丸で示す。

丸の上にカーソルを重ねると観測所名を参照できる。

次にクリックすると気象観測と天気予報を参照できる。

マップの切り替え:黒色「×」印の緑ボタンをクリックして拡大、「-」印の緑ボタンをクリックして縮小、緑色の三角印をクリックして隣りの地図に切り替え


METAR-TAF: